CheckWX is a tool to help pilots better visualize weather data.  It is not intended as a substitute for an official pre-flight weather briefing.

02:57:51 UTC

KSZL METAR
Whiteman AFB Airport
Knob Noster, Missouri, USA
Current

1 hour ago

KSZL 230156Z 30008KT 10SM FEW030 SCT060 SCT120 21/21 A2992 RMK AO2A SLP129 T02080208 $
Observed
Sep-23 @ 01:56 UTC
Wind
  • 300° at 8 KTS
Visibility
10 SM
Flight Rules
VFR
Cloud Levels
  • Few at 3,000' AGL
  • Scattered at 6,000' AGL
  • Scattered at 12,000' AGL
Temperature
21°C / 70°F
Dewpoint
21°C / 70°F
Humidity
100%
Altimeter
29.92" Hg
Pressure
1013.22 hPa
Previous

3 hours ago

KSZL 230013Z 31012KT 1SM +RA BR FEW010 BKN015 OVC025 23/23 A2988 RMK AO2A WSHFT20 FROPA PRESRR SLP115 $
Observed
Sep-23 @ 00:13 UTC
Wind
  • 310° at 12 KTS
Visibility
1 SM
Flight Rules
IFR
Conditions
Heavy Rain, Mist
Cloud Levels
  • Few at 1,000' AGL
  • Broken at 1,500' AGL
  • Overcast at 2,500' AGL
Temperature
23°C / 73°F
Dewpoint
23°C / 73°F
Humidity
100%
Altimeter
29.88" Hg
Pressure
1011.82 hPa
Previous

3 hours ago

KSZL 222356Z 21008KT 10SM BKN025 BKN060 BKN080 23/23 A2986 RMK AO2A SLP108 P0000 60002 T02280228 10238 20206 53008 $
Observed
Sep-22 @ 23:56 UTC
Wind
  • 210° at 8 KTS
Visibility
10 SM
Flight Rules
MVFR
Cloud Levels
  • Broken at 2,500' AGL
  • Broken at 6,000' AGL
  • Broken at 8,000' AGL
Temperature
23°C / 73°F
Dewpoint
23°C / 73°F
Humidity
100%
Altimeter
29.86" Hg
Pressure
1011.22 hPa
Current Rain
0.01"